Latest Coastal Weather Observations for Maroochydore

IDQ60701

Issued at 3:51 pm EST Tuesday 31 May 2016 (issued every 10 minutes, with the page automatically refreshed every 10 minutes)

About coastal observations | Map of coastal stations | Coastal observations for QLD | Marine services | Other Formats
Station Details ID: 040861 Name: SUNSHINE COAST AIRPORT Lat: -26.60 Lon: 153.09 Height: 3.3 m
Data from the previous 72 hours. | See also: Recent months at Maroochydore
Date/Time
EST
Temp

°C
Wind Pressure Rain
since 9am
mm
Weather Cloud Vis
km
Sea
Height
m
Swell
Dir
 
Speed
knots
Gust
knots
hPa Trend Height
m
Period
s
Dir
31/03:30pm 21.6 SE 7 9 1023.2 - 0.0 - - 10 - - - -
31/03:00pm 22.2 SE 8 10 1023.1 - 0.0 - - 10 - - - -
31/02:30pm 21.9 SE 7 9 1023.0 - 0.0 - - 10 - - - -
31/02:00pm 23.0 SE 8 11 1023.3 - 0.0 - - 10 - - - -
31/01:30pm 23.4 SE 8 11 1023.3 - 0.0 - - 10 - - - -
31/01:00pm 23.3 SE 8 11 1023.7 - 0.0 - - 10 - - - -
31/12:30pm 23.4 SE 8 12 1024.1 - 0.0 - Partly cloudy 10 - - - -
31/12:00pm 23.2 SE 8 9 1024.6 - 0.0 - Partly cloudy 10 - - - -
31/11:30am 22.7 SSE 9 11 1024.7 - 0.0 - Partly cloudy 10 - - - -
31/11:00am 23.4 S 9 12 1025.2 - 0.0 - Partly cloudy 10 - - - -
31/10:30am 22.9 S 9 12 1025.4 - 0.0 - Partly cloudy 10 - - - -
31/10:00am 22.4 S 9 11 1025.6 - 0.0 - Partly cloudy 10 - - - -
31/09:30am 20.9 SSW 7 9 1026.1 - 0.0 - - 10 - - - -
31/09:00am 18.0 WSW 5 6 1026.2 - 0.0 - Cloudy 10 - - - -
31/08:30am 15.0 WSW 4 4 1025.7 - 0.0 - Partly cloudy 10 - - - -
31/08:00am 12.6 W 5 6 1025.6 - 0.0 - - 10 - - - -
31/07:30am 10.7 W 4 5 1025.3 - 0.0 - - 10 - - - -
31/07:00am 8.5 W 3 4 1025.1 - 0.0 - - 10 - - - -
31/06:30am 7.9 W 5 5 1024.9 - 0.0 - - 10 - - - -
31/06:00am 8.1 W 3 4 1024.6 - 0.0 - - 9 - - - -
31/05:30am 8.6 WSW 4 5 1023.9 - 0.0 - - 10 - - - -
31/05:00am 8.6 W 4 5 1023.7 - 0.0 - - 10 - - - -
31/04:30am 9.1 WNW 3 4 1023.6 - 0.0 - Partly cloudy 10 - - - -
31/04:00am 9.2 W 4 5 1023.7 - 0.0 - - 10 - - - -
31/03:30am 8.6 W 4 5 1023.6 - 0.0 - - 10 - - - -
31/03:00am 9.2 WSW 4 4 1023.5 - 0.0 - - 10 - - - -
31/02:51am 9.1 WSW 3 4 1023.4 - 0.0 - - 10 - - - -
31/02:30am 8.8 W 3 4 1023.4 - 0.0 - - 1 - - - -
31/02:21am 8.7 WSW 4 4 1023.5 - 0.0 - - 5 - - - -
31/02:00am 9.2 W 3 4 1023.7 - 0.0 - Partly cloudy 10 - - - -
31/01:30am 9.1 W 4 4 1023.9 - 0.0 - Partly cloudy 10 - - - -
31/01:00am 9.2 WSW 3 4 1023.8 - 0.0 - Partly cloudy 10 - - - -
31/12:30am 9.6 W 4 4 1023.9 - 0.0 - - 10 - - - -
31/12:00am 9.6 W 3 4 1024.0 - 0.0 - - 10 - - - -
 
Date/Time
EST
Temp

°C
Wind Pressure Rain
since 9am
mm
Weather Cloud Vis
km
Sea
Height
m
Swell
Dir
 
Speed
knots
Gust
knots
hPa Trend Height
m
Period
s
Dir
30/11:30pm 9.8 WSW 4 5 1024.2 - 0.0 - Partly cloudy 10 - - - -
30/11:00pm 9.4 SW 4 5 1024.4 - 0.0 - Partly cloudy 10 - - - -
30/10:30pm 10.3 W 4 5 1024.5 - 0.0 - - 10 - - - -
30/10:00pm 10.0 W 3 4 1024.0 - 0.0 - - 10 - - - -
30/09:30pm 11.0 WSW 4 5 1024.1 - 0.0 - - 10 - - - -
30/09:00pm 11.0 WSW 3 4 1024.1 - 0.0 - - 10 - - - -
30/08:30pm 11.7 SW 3 5 1024.0 - 0.0 - - 10 - - - -
30/08:00pm 12.3 WSW 5 6 1023.7 - 0.0 - - 10 - - - -
30/07:30pm 13.4 WSW 5 6 1023.3 - 0.0 - - 10 - - - -
30/07:00pm 14.4 S 3 5 1023.0 - 0.0 - - 10 - - - -
30/06:30pm 15.8 E 6 8 1023.0 - 0.0 - - 10 - - - -
30/06:00pm 18.0 ESE 5 7 1022.5 - 0.0 - - 10 - - - -
30/05:30pm 18.3 E 5 7 1022.2 - 0.0 - - 10 - - - -
30/05:00pm 18.8 E 7 8 1022.0 - 0.0 - - 10 - - - -
30/04:30pm 19.8 E 6 9 1021.8 - 0.0 - - 10 - - - -
30/04:00pm 20.7 E 7 11 1021.7 - 0.0 - - 10 - - - -
30/03:30pm 20.9 ESE 8 11 1021.4 - 0.0 - - 10 - - - -
30/03:00pm 21.2 ESE 9 11 1021.3 - 0.0 - - 10 - - - -
30/02:30pm 21.4 ESE 8 11 1021.2 - 0.0 - - 10 - - - -
30/02:00pm 21.6 E 8 11 1021.2 - 0.0 - - 10 - - - -
30/01:30pm 21.6 ESE 8 10 1021.3 - 0.0 - - 10 - - - -
30/01:00pm 22.3 ESE 7 9 1021.4 - 0.0 - - 10 - - - -
30/12:30pm 22.1 ESE 8 9 1021.6 - 0.0 - - 10 - - - -
30/12:00pm 22.3 ESE 7 9 1022.2 - 0.0 - - 10 - - - -
30/11:30am 22.1 ESE 8 10 1022.6 - 0.0 - - 10 - - - -
30/11:00am 21.7 S 4 8 1023.1 - 0.0 - - 10 - - - -
30/10:30am 20.9 S 3 6 1023.3 - 0.0 - - 10 - - - -
30/10:00am 19.8 S 5 7 1023.4 - 0.0 - - 10 - - - -
30/09:30am 17.9 S 4 6 1023.5 - 0.0 - - 10 - - - -
30/09:00am 14.9 W 5 5 1023.5 - 0.0 - - 10 - - - -
30/08:30am 12.2 W 4 5 1023.3 - 0.0 - - 10 - - - -
30/08:00am 10.3 W 5 6 1023.1 - 0.0 - - 10 - - - -
30/07:30am 8.1 W 4 5 1022.7 - 0.0 - - 10 - - - -
30/07:00am 5.5 W 4 5 1022.3 - 0.0 - - 10 - - - -
30/06:30am 4.7 W 5 5 1021.7 - 0.0 - - 10 - - - -
30/06:00am 5.1 W 5 6 1021.5 - 0.0 - - 10 - - - -
30/05:30am 4.9 W 5 6 1021.2 - 0.0 - - 10 - - - -
30/05:00am 5.3 W 5 6 1020.8 - 0.0 - - 10 - - - -
30/04:30am 5.6 W 5 6 1020.5 - 0.0 - - 10 - - - -
30/04:00am 5.9 W 6 6 1020.3 - 0.0 - - 10 - - - -
30/03:30am 6.1 WNW 7 8 1020.2 - 0.0 - - 10 - - - -
30/03:00am 6.1 W 6 7 1020.1 - 0.0 - - 10 - - - -
30/02:30am 6.3 W 5 7 1020.1 - 0.0 - - 10 - - - -
30/02:00am 6.6 W 3 6 1020.1 - 0.0 - - 10 - - - -
30/01:30am 6.8 WNW 7 9 1020.2 - 0.0 - - 10 - - - -
30/01:00am 6.7 WNW 6 7 1019.9 - 0.0 - - 10 - - - -
30/12:30am 6.9 WNW 4 5 1020.0 - 0.0 - - 10 - - - -
30/12:12am 6.9 WNW 5 7 1019.9 - 0.0 - - 10 - - - -
30/12:00am 5.7 NW 5 7 1019.8 - 0.0 - - 3 - - - -
 
Date/Time
EST
Temp

°C
Wind Pressure Rain
since 9am
mm
Weather Cloud Vis
km
Sea
Height
m
Swell
Dir
 
Speed
knots
Gust
knots
hPa Trend Height
m
Period
s
Dir
29/11:50pm 6.1 WNW 4 5 1019.9 - 0.0 - - 5 - - - -
29/11:30pm 7.2 W 4 5 1020.1 - 0.0 - - 10 - - - -
29/11:00pm 7.0 W 4 5 1020.2 - 0.0 - - 10 - - - -
29/10:30pm 8.1 W 1 3 1020.3 - 0.0 - - 10 - - - -
29/10:00pm 8.4 W 4 5 1020.4 - 0.0 - - 10 - - - -
29/09:30pm 8.4 W 4 5 1020.2 - 0.0 - - 10 - - - -
29/09:00pm 8.9 W 4 5 1020.2 - 0.0 - - 10 - - - -
29/08:30pm 8.6 W 4 5 1019.9 - 0.0 - - 10 - - - -
29/08:00pm 9.6 WSW 4 5 1019.7 - 0.0 - - 10 - - - -
29/07:30pm 10.5 WSW 2 4 1019.4 - 0.0 - - 10 - - - -
29/07:00pm 11.2 W 6 7 1019.0 - 0.0 - - 10 - - - -
29/06:30pm 11.6 WNW 6 7 1018.7 - 0.0 - - 10 - - - -
29/06:00pm 12.3 WNW 7 8 1018.3 - 0.0 - - 10 - - - -
29/05:30pm 13.3 NW 6 7 1017.9 - 0.0 - - 10 - - - -
29/05:00pm 15.3 N 4 6 1017.5 - 0.0 - - 10 - - - -
29/04:30pm 16.6 N 5 6 1017.2 - 0.0 - - 10 - - - -
29/04:00pm 19.1 N 6 7 1016.9 - 0.0 - - 10 - - - -
29/03:30pm 21.0 NNE 7 9 1016.7 - 0.0 - - 10 - - - -
29/03:00pm 21.1 N 7 9 1016.6 - 0.0 - - 10 - - - -
29/02:30pm 19.4 NNE 7 9 1016.6 - 0.0 - - 10 - - - -
29/02:00pm 20.2 NNE 9 13 1016.7 - 0.0 - - 10 - - - -
29/01:30pm 20.5 ENE 7 8 1016.3 - 0.0 - - 10 - - - -
29/01:00pm 21.5 NE 5 7 1016.5 - 0.0 - - 10 - - - -
29/12:30pm 21.9 ENE 6 9 1016.7 - 0.0 - - 10 - - - -
29/12:00pm 20.8 E 6 7 1017.2 - 0.0 - - 10 - - - -
29/11:30am 20.8 SSW 2 7 1017.8 - 0.0 - - 10 - - - -
29/11:00am 19.3 SSW 3 5 1018.2 - 0.0 - - 10 - - - -
29/10:30am 18.4 W 1 5 1018.5 - 0.0 - - 10 - - - -
29/10:00am 19.0 W 3 6 1018.9 - 0.0 - - 10 - - - -
29/09:30am 17.7 W 3 5 1018.9 - 0.0 - - 10 - - - -
29/09:00am 16.6 S 6 8 1018.8 - 0.0 - - 10 - - - -
29/08:30am 15.5 S 8 9 1018.4 - 0.0 - - 10 - - - -
29/08:00am 14.0 S 8 10 1018.1 - 0.0 - - 10 - - - -
29/07:30am 12.5 SSE 8 10 1018.0 - 0.0 - - 10 - - - -
29/07:00am 8.2 SSE 3 5 1017.6 - 0.0 - - 10 - - - -
29/06:30am 8.0 ESE 1 4 1017.2 - 0.0 - - 10 - - - -
29/06:00am 9.2 SE 1 4 1016.9 - 0.0 - - 10 - - - -
29/05:30am 9.7 WSW 5 6 1016.5 - 0.0 - - 10 - - - -
29/05:00am 10.2 W 4 5 1016.3 - 0.0 - - 10 - - - -
29/04:30am 11.9 WSW 6 9 1016.1 - 0.0 - - 10 - - - -
29/04:00am 11.3 SW 3 9 1016.1 - 0.0 - - 10 - - - -
29/03:30am 10.4 N 3 5 1016.1 - 0.0 - - 10 - - - -
29/03:00am 10.7 NW 5 6 1015.9 - 0.0 - - 10 - - - -
29/02:30am 12.9 SW 9 12 1015.5 - 0.0 - - 10 - - - -
29/02:00am 11.4 WSW 7 10 1015.7 - 0.0 - - 10 - - - -
29/01:30am 11.9 WSW 8 10 1015.6 - 0.0 - - 10 - - - -
29/01:00am 11.0 WSW 5 8 1015.8 - 0.0 - - 10 - - - -
29/12:30am 9.4 WNW 4 9 1015.6 - 0.0 - - 10 - - - -
29/12:00am 9.8 NNW 5 6 1015.8 - 0.0 - - 10 - - - -
 
Date/Time
EST
Temp

°C
Wind Pressure Rain
since 9am
mm
Weather Cloud Vis
km
Sea
Height
m
Swell
Dir
 
Speed
knots
Gust
knots
hPa Trend Height
m
Period
s
Dir
28/11:30pm 9.9 N 5 7 1015.9 - 0.0 - - 10 - - - -
28/11:00pm 11.4 W 5 7 1015.8 - 0.0 - - 10 - - - -
28/10:30pm 14.2 WSW 7 9 1015.9 - 0.0 - - 10 - - - -
28/10:00pm 14.5 W 8 9 1016.0 - 0.0 - - 10 - - - -
28/09:30pm 13.7 W 6 8 1015.8 - 0.0 - - 10 - - - -
28/09:00pm 13.6 W 6 7 1015.7 - 0.0 - - 10 - - - -
28/08:30pm 13.7 WSW 6 8 1015.5 - 0.0 - - 10 - - - -
28/08:00pm 13.6 SSW 4 5 1015.2 - 0.0 - - 10 - - - -
28/07:30pm 14.0 WNW 4 6 1014.6 - 0.0 - - 10 - - - -
28/07:00pm 15.8 WNW 5 6 1014.1 - 0.0 - - 10 - - - -
28/06:30pm 16.8 W 8 12 1013.7 - 0.0 - - 10 - - - -
28/06:00pm 16.6 W 8 10 1013.1 - 0.0 - - 10 - - - -
28/05:30pm 17.6 W 7 9 1012.4 - 0.0 - - 10 - - - -
28/05:00pm 19.1 W 8 12 1011.8 - 0.0 - - 10 - - - -
28/04:30pm 21.4 W 12 17 1011.4 - 0.0 - - 10 - - - -
28/04:00pm 22.4 W 12 17 1010.9 - 0.0 - - 10 - - - -

Other Formats:

Comma delimited format used in spreadsheet applications
http://www.bom.gov.au/fwo/IDQ60701/IDQ60701.94569.axf

JavaScript Object Notation format (JSON) in row-major order
http://www.bom.gov.au/fwo/IDQ60701/IDQ60701.94569.json